createdAt,value
2018-03-14T00:00:38.965Z,8.13
2018-03-14T00:03:07.322Z,9.47
2018-03-14T00:05:35.698Z,11.20
2018-03-14T00:08:04.097Z,9.73
2018-03-14T00:10:32.869Z,8.67
2018-03-14T00:13:01.230Z,11.53
2018-03-14T00:15:29.580Z,8.63
2018-03-14T00:17:57.962Z,9.50
2018-03-14T00:20:26.322Z,7.47
2018-03-14T00:22:55.444Z,7.30
2018-03-14T00:25:24.530Z,7.53
2018-03-14T00:27:53.216Z,8.40
2018-03-14T00:30:21.568Z,9.50
2018-03-14T00:32:50.730Z,8.30
2018-03-14T00:35:19.108Z,10.97
2018-03-14T00:37:49.391Z,7.43
2018-03-14T00:40:21.750Z,12.47
2018-03-14T00:42:52.215Z,7.40
2018-03-14T00:45:20.594Z,8.13
2018-03-14T00:47:48.929Z,9.23
2018-03-14T00:50:21.139Z,8.27
2018-03-14T00:52:49.770Z,7.67
2018-03-14T00:55:18.900Z,5.57
2018-03-14T00:57:47.751Z,10.93
2018-03-14T01:00:16.183Z,5.97
2018-03-14T01:02:44.938Z,6.97
2018-03-14T01:05:13.811Z,8.03
2018-03-14T01:07:42.316Z,8.17
2018-03-14T01:10:10.733Z,6.87
2018-03-14T01:12:39.142Z,7.80
2018-03-14T01:15:07.614Z,7.13
2018-03-14T01:17:36.045Z,7.53
2018-03-14T01:20:04.386Z,8.47
2018-03-14T01:22:33.650Z,8.53
2018-03-14T01:25:02.038Z,6.77
2018-03-14T01:27:30.444Z,10.30
2018-03-14T01:29:59.153Z,7.87
2018-03-14T01:32:27.503Z,11.80
2018-03-14T01:34:56.675Z,9.40
2018-03-14T01:37:25.097Z,8.63
2018-03-14T01:39:54.428Z,6.57
2018-03-14T01:42:23.271Z,9.37
2018-03-14T01:44:52.887Z,10.37
2018-03-14T01:47:21.341Z,9.00
2018-03-14T01:49:49.673Z,6.83
2018-03-14T01:52:18.012Z,10.50
2018-03-14T01:54:47.456Z,7.97
2018-03-14T01:57:15.812Z,7.30
2018-03-14T01:59:44.172Z,10.27
2018-03-14T02:02:12.556Z,9.27
2018-03-14T02:04:41.654Z,9.30
2018-03-14T02:07:10.025Z,7.13
2018-03-14T02:09:39.197Z,7.43
2018-03-14T02:12:07.539Z,8.57
2018-03-14T02:14:35.883Z,9.33
2018-03-14T02:17:04.254Z,7.30
2018-03-14T02:19:33.398Z,8.10
2018-03-14T02:22:01.760Z,5.87
2018-03-14T02:24:30.127Z,9.37
2018-03-14T02:26:58.473Z,7.83
2018-03-14T02:29:26.821Z,8.00
2018-03-14T02:31:55.189Z,6.00
2018-03-14T02:34:23.543Z,10.53
2018-03-14T02:37:08.742Z,10.37
2018-03-14T02:39:37.073Z,7.57
2018-03-14T02:42:06.219Z,10.93
2018-03-14T02:44:35.045Z,10.00
2018-03-14T02:47:03.410Z,8.17
2018-03-14T02:49:31.733Z,9.00
2018-03-14T02:52:00.076Z,9.50
2018-03-14T02:54:28.412Z,9.23
2018-03-14T02:56:56.747Z,9.67
2018-03-14T02:59:25.879Z,8.63
2018-03-14T03:01:54.184Z,9.23
2018-03-14T03:04:22.518Z,10.43
2018-03-14T03:06:50.898Z,10.70
2018-03-14T03:09:19.212Z,8.70
2018-03-14T03:11:47.542Z,9.30
2018-03-14T03:14:15.880Z,8.00
2018-03-14T03:16:44.237Z,11.93
2018-03-14T03:19:12.585Z,12.13
2018-03-14T03:21:40.907Z,9.57
2018-03-14T03:24:09.262Z,9.70
2018-03-14T03:26:37.576Z,10.17
2018-03-14T03:29:05.936Z,7.93
2018-03-14T03:31:34.265Z,10.70
2018-03-14T03:34:02.650Z,6.13
2018-03-14T03:36:30.979Z,13.20
2018-03-14T03:38:59.315Z,8.43
2018-03-14T03:41:27.685Z,5.10
2018-03-14T03:43:56.017Z,9.33
2018-03-14T03:46:24.330Z,10.87
2018-03-14T03:48:52.660Z,9.63
2018-03-14T03:51:20.971Z,7.20
2018-03-14T03:53:49.324Z,7.27
2018-03-14T03:56:17.664Z,8.23
2018-03-14T03:58:46.020Z,8.83
2018-03-14T04:01:14.350Z,8.03
2018-03-14T04:03:42.688Z,8.30
2018-03-14T04:06:11.062Z,6.93
2018-03-14T04:08:39.421Z,7.87
2018-03-14T04:11:07.739Z,9.03
2018-03-14T04:13:36.056Z,15.47
2018-03-14T04:16:04.442Z,7.93
2018-03-14T04:18:33.540Z,8.47
2018-03-14T04:21:01.913Z,8.70
2018-03-14T04:23:30.278Z,9.93
2018-03-14T04:25:59.351Z,7.43
2018-03-14T04:28:27.710Z,9.87
2018-03-14T04:30:56.039Z,8.60
2018-03-14T04:33:24.429Z,9.77
2018-03-14T04:35:52.740Z,11.20
2018-03-14T04:38:21.065Z,8.67
2018-03-14T04:40:49.443Z,10.83
2018-03-14T04:43:18.543Z,9.83
2018-03-14T04:45:47.636Z,8.87
2018-03-14T04:48:16.756Z,8.63
2018-03-14T04:50:45.100Z,10.23
2018-03-14T04:53:14.228Z,10.37
2018-03-14T04:55:42.555Z,8.13
2018-03-14T04:58:10.931Z,8.37
2018-03-14T05:00:39.268Z,10.67
2018-03-14T05:03:07.609Z,10.80
2018-03-14T05:05:35.982Z,9.43
2018-03-14T05:08:05.099Z,10.50
2018-03-14T05:10:33.437Z,8.23
2018-03-14T05:13:01.790Z,8.73
2018-03-14T05:15:30.165Z,9.90
2018-03-14T05:17:58.516Z,7.87
2018-03-14T05:20:26.856Z,8.03
2018-03-14T05:22:55.984Z,9.50
2018-03-14T05:25:24.343Z,13.67
2018-03-14T05:27:52.688Z,9.80
2018-03-14T05:30:21.021Z,8.73
2018-03-14T05:32:49.332Z,9.30
2018-03-14T05:35:17.710Z,7.67
2018-03-14T05:37:46.045Z,11.20
2018-03-14T05:40:14.368Z,13.40
2018-03-14T05:42:42.739Z,10.23
2018-03-14T05:45:11.124Z,12.53
2018-03-14T05:47:39.448Z,8.60
2018-03-14T05:50:07.760Z,9.33
2018-03-14T05:52:36.101Z,12.30
2018-03-14T05:55:04.489Z,14.00
2018-03-14T05:57:32.835Z,9.40
2018-03-14T06:00:01.914Z,10.20
2018-03-14T06:02:30.301Z,10.53
2018-03-14T06:04:59.398Z,10.10
2018-03-14T06:07:28.514Z,9.20
2018-03-14T06:09:56.894Z,8.43
2018-03-14T06:12:25.247Z,11.17
2018-03-14T06:14:54.386Z,12.00
2018-03-14T06:17:22.709Z,13.50
2018-03-14T06:19:51.091Z,9.47
2018-03-14T06:22:19.435Z,8.17
2018-03-14T06:24:47.782Z,8.83
2018-03-14T06:27:16.164Z,9.10
2018-03-14T06:29:44.481Z,9.17
2018-03-14T06:32:12.806Z,8.97
2018-03-14T06:34:41.167Z,9.93
2018-03-14T06:37:10.248Z,9.50
2018-03-14T06:39:38.591Z,8.70
2018-03-14T06:42:06.931Z,8.87
2018-03-14T06:44:35.950Z,11.23
2018-03-14T06:47:04.292Z,11.10
2018-03-14T06:49:32.687Z,10.43
2018-03-14T06:52:01.010Z,9.77
2018-03-14T06:54:29.363Z,8.97
2018-03-14T06:56:57.769Z,8.43
2018-03-14T06:59:37.934Z,9.90
2018-03-14T07:02:17.993Z,14.67
2018-03-14T07:05:01.042Z,7.53
2018-03-14T07:07:29.448Z,11.50
2018-03-14T07:09:57.782Z,10.70
2018-03-14T07:12:26.884Z,8.10
2018-03-14T07:14:55.225Z,9.60
2018-03-14T07:17:23.575Z,10.43
2018-03-14T07:19:51.982Z,10.73
2018-03-14T07:22:20.306Z,20.00
2018-03-14T07:24:48.650Z,15.57
2018-03-14T07:27:17.051Z,11.87
2018-03-14T07:29:45.402Z,12.30
2018-03-14T07:32:14.504Z,9.80
2018-03-14T07:34:43.631Z,10.83
2018-03-14T07:37:11.998Z,10.07
2018-03-14T07:39:40.343Z,9.20
2018-03-14T07:42:08.692Z,11.93
2018-03-14T07:44:37.899Z,9.87
2018-03-14T07:47:06.255Z,11.70
2018-03-14T07:49:34.598Z,9.30
2018-03-14T07:52:03.704Z,7.53
2018-03-14T07:54:32.055Z,11.10
2018-03-14T07:57:01.196Z,11.60
2018-03-14T07:59:29.514Z,9.33
2018-03-14T08:01:57.858Z,7.77
2018-03-14T08:04:26.210Z,9.40
2018-03-14T08:06:54.556Z,9.47
2018-03-14T08:09:23.657Z,9.13
2018-03-14T08:11:52.799Z,9.90
2018-03-14T08:14:21.117Z,11.77
2018-03-14T08:16:49.490Z,10.27
2018-03-14T08:19:18.760Z,8.47
2018-03-14T08:21:47.089Z,10.17
2018-03-14T08:24:16.216Z,7.80
2018-03-14T08:26:44.535Z,7.57
2018-03-14T08:29:12.943Z,9.47
2018-03-14T08:31:42.076Z,8.50
2018-03-14T08:34:10.389Z,8.43
2018-03-14T08:36:38.760Z,8.80
2018-03-14T08:39:07.101Z,9.27
2018-03-14T08:41:35.513Z,10.43
2018-03-14T08:44:03.906Z,10.17
2018-03-14T08:46:33.051Z,10.20
2018-03-14T08:49:01.430Z,9.93
2018-03-14T08:51:29.745Z,11.87
2018-03-14T08:53:58.088Z,8.40
2018-03-14T08:56:26.463Z,7.20
2018-03-14T08:58:54.929Z,10.57
2018-03-14T09:01:23.381Z,9.50
2018-03-14T09:03:52.497Z,10.30
2018-03-14T09:06:20.832Z,8.37
2018-03-14T09:08:49.206Z,10.00
2018-03-14T09:11:17.605Z,11.47
2018-03-14T09:13:46.708Z,8.67
2018-03-14T09:16:15.809Z,8.70
2018-03-14T09:18:44.897Z,7.93
2018-03-14T09:21:13.202Z,8.53
2018-03-14T09:23:41.619Z,7.70
2018-03-14T09:26:09.948Z,9.50
2018-03-14T09:28:38.285Z,8.50
2018-03-14T09:31:06.660Z,11.27
2018-03-14T09:33:35.032Z,7.90
2018-03-14T09:36:03.404Z,9.23
2018-03-14T09:38:31.736Z,7.80
2018-03-14T09:41:00.092Z,8.93
2018-03-14T09:43:29.217Z,7.20
2018-03-14T09:45:57.625Z,8.87
2018-03-14T09:48:25.965Z,10.67
2018-03-14T09:50:54.296Z,8.80
2018-03-14T09:53:22.712Z,10.37
2018-03-14T09:55:51.078Z,6.83
2018-03-14T09:58:20.174Z,10.63
2018-03-14T10:00:49.346Z,8.17
2018-03-14T10:03:18.452Z,8.90
2018-03-14T10:05:46.792Z,6.47
2018-03-14T10:08:15.772Z,7.43
2018-03-14T10:10:44.102Z,5.80
2018-03-14T10:13:12.474Z,8.97
2018-03-14T10:15:40.837Z,8.33
2018-03-14T10:18:10.007Z,8.17
2018-03-14T10:20:38.404Z,6.13
2018-03-14T10:23:06.766Z,5.47
2018-03-14T10:25:35.146Z,7.07
2018-03-14T10:28:03.499Z,5.90
2018-03-14T10:30:31.813Z,6.20
2018-03-14T10:33:00.203Z,13.90
2018-03-14T10:35:28.543Z,6.90
2018-03-14T10:37:57.669Z,5.13
2018-03-14T10:40:26.010Z,6.17
2018-03-14T10:42:54.335Z,6.07
2018-03-14T10:45:22.886Z,9.07
2018-03-14T10:47:51.235Z,9.43
2018-03-14T10:50:19.626Z,10.77
2018-03-14T10:52:47.951Z,8.57
2018-03-14T10:55:16.343Z,17.30
2018-03-14T10:57:45.505Z,9.47
2018-03-14T11:00:19.511Z,9.40
2018-03-14T11:02:52.844Z,5.13
2018-03-14T11:05:21.939Z,8.60
2018-03-14T11:07:51.096Z,11.87
2018-03-14T11:10:19.445Z,5.83
2018-03-14T11:12:47.864Z,6.63
2018-03-14T11:15:16.238Z,6.37
2018-03-14T11:17:44.593Z,10.43
2018-03-14T11:20:12.975Z,8.47
2018-03-14T11:22:41.304Z,8.10
2018-03-14T11:25:10.486Z,4.70
2018-03-14T11:27:39.492Z,7.37
2018-03-14T11:30:08.579Z,6.73
2018-03-14T11:32:37.678Z,7.20
2018-03-14T11:35:06.033Z,9.70
2018-03-14T11:37:34.365Z,5.53
2018-03-14T11:40:03.516Z,11.23
2018-03-14T11:42:31.840Z,9.43
2018-03-14T11:45:00.172Z,8.00
2018-03-14T11:47:28.527Z,8.90
2018-03-14T11:49:56.885Z,7.67
2018-03-14T11:52:25.220Z,8.10
2018-03-14T11:54:54.409Z,6.13
2018-03-14T11:57:23.512Z,7.50
2018-03-14T11:59:52.633Z,7.07
2018-03-14T12:02:21.006Z,6.83
2018-03-14T12:04:50.029Z,8.73
2018-03-14T12:07:19.084Z,8.60
2018-03-14T12:09:47.414Z,7.30
2018-03-14T12:12:15.746Z,9.53
2018-03-14T12:14:44.132Z,9.77
2018-03-14T12:17:12.480Z,10.50
2018-03-14T12:19:41.019Z,8.87
2018-03-14T12:22:15.607Z,9.13
2018-03-14T12:24:43.955Z,8.63
2018-03-14T12:27:13.079Z,6.83
2018-03-14T12:29:41.432Z,7.73
2018-03-14T12:32:10.549Z,9.77
2018-03-14T12:34:38.941Z,9.47
2018-03-14T12:37:07.258Z,6.60
2018-03-14T12:39:35.625Z,7.23
2018-03-14T12:42:04.598Z,7.83
2018-03-14T12:44:35.188Z,6.10
2018-03-14T12:47:04.321Z,7.53
2018-03-14T12:49:32.706Z,6.17
2018-03-14T12:52:01.033Z,7.33
2018-03-14T12:54:30.204Z,6.17
2018-03-14T12:56:58.539Z,7.50
2018-03-14T12:59:26.877Z,5.73
2018-03-14T13:01:56.035Z,8.17
2018-03-14T13:04:24.389Z,6.33
2018-03-14T13:06:52.720Z,7.03
2018-03-14T13:09:21.082Z,7.97
2018-03-14T13:11:49.520Z,9.20
2018-03-14T13:14:18.606Z,10.10
2018-03-14T13:16:46.987Z,10.90
2018-03-14T13:19:15.338Z,8.23
2018-03-14T13:21:44.661Z,13.77
2018-03-14T13:24:12.985Z,8.37
2018-03-14T13:26:41.403Z,5.33
2018-03-14T13:29:09.783Z,5.67
2018-03-14T13:31:38.370Z,8.67
2018-03-14T13:34:07.171Z,7.70
2018-03-14T13:36:35.587Z,8.47
2018-03-14T13:39:04.019Z,7.80
2018-03-14T13:41:32.352Z,8.77
2018-03-14T13:44:00.721Z,9.60
2018-03-14T13:46:29.056Z,7.53
2018-03-14T13:48:57.417Z,8.77
2018-03-14T13:51:26.547Z,6.53
2018-03-14T13:53:54.954Z,6.90
2018-03-14T13:56:23.314Z,9.03
2018-03-14T13:58:51.708Z,7.67
2018-03-14T14:01:20.028Z,9.70
2018-03-14T14:03:49.310Z,8.17
2018-03-14T14:06:18.452Z,6.33
2018-03-14T14:08:46.873Z,7.93
2018-03-14T14:11:15.367Z,6.60
2018-03-14T14:13:43.681Z,6.67
2018-03-14T14:16:12.057Z,9.10
2018-03-14T14:18:40.400Z,10.03
2018-03-14T14:21:09.617Z,7.07
2018-03-14T14:23:38.036Z,5.30
2018-03-14T14:26:06.414Z,7.73
2018-03-14T14:28:34.782Z,7.50
2018-03-14T14:31:03.730Z,8.13
2018-03-14T14:33:32.865Z,7.13
2018-03-14T14:36:01.413Z,7.87
2018-03-14T14:38:30.543Z,6.87
2018-03-14T14:40:58.934Z,7.80
2018-03-14T14:43:27.273Z,7.80
2018-03-14T14:45:55.652Z,5.57
2018-03-14T14:48:24.021Z,9.90
2018-03-14T14:50:52.471Z,10.20
2018-03-14T14:53:20.803Z,7.13
2018-03-14T14:55:49.110Z,6.00
2018-03-14T14:58:17.474Z,9.20
2018-03-14T15:00:45.839Z,9.33
2018-03-14T15:03:14.221Z,10.07
2018-03-14T15:05:43.025Z,7.23
2018-03-14T15:08:12.503Z,9.27
2018-03-14T15:10:40.931Z,10.77
2018-03-14T15:13:09.556Z,9.17
2018-03-14T15:15:38.869Z,8.53
2018-03-14T15:18:07.226Z,10.83
2018-03-14T15:20:37.776Z,12.10
2018-03-14T15:23:07.710Z,14.67
2018-03-14T15:25:36.081Z,14.70
2018-03-14T15:28:04.486Z,13.33
2018-03-14T15:30:33.155Z,15.33
2018-03-14T15:33:02.295Z,20.10
2018-03-14T15:35:30.692Z,18.37
2018-03-14T15:37:59.038Z,24.50
2018-03-14T15:40:28.231Z,22.87
2018-03-14T15:42:57.381Z,21.43
2018-03-14T15:45:27.375Z,25.23
2018-03-14T15:47:55.765Z,27.60
2018-03-14T15:50:24.544Z,27.90
2018-03-14T15:52:53.065Z,29.27
2018-03-14T15:55:21.481Z,28.07
2018-03-14T15:57:49.886Z,27.33
2018-03-14T16:00:18.243Z,30.47
2018-03-14T16:02:46.733Z,29.80
2018-03-14T16:05:17.707Z,24.53
2018-03-14T16:07:46.652Z,26.83
2018-03-14T16:10:15.017Z,23.37
2018-03-14T16:12:44.131Z,25.30
2018-03-14T16:15:12.522Z,22.90
2018-03-14T16:17:40.899Z,20.17
2018-03-14T16:20:09.283Z,25.97
2018-03-14T16:22:37.647Z,19.13
2018-03-14T16:25:06.000Z,19.50
2018-03-14T16:27:35.143Z,20.97
2018-03-14T16:30:03.558Z,20.20
2018-03-14T16:32:31.947Z,18.17
2018-03-14T16:35:01.054Z,15.70
2018-03-14T16:37:30.183Z,19.87
2018-03-14T16:39:59.330Z,15.77
2018-03-14T16:42:28.004Z,18.93
2018-03-14T16:44:56.809Z,20.70
2018-03-14T16:47:25.933Z,15.67
2018-03-14T16:49:54.392Z,16.80
2018-03-14T16:52:22.782Z,18.33
2018-03-14T16:54:51.111Z,17.80
2018-03-14T16:57:21.214Z,16.57
2018-03-14T16:59:49.976Z,14.10
2018-03-14T17:02:18.321Z,13.77
2018-03-14T17:04:47.506Z,16.13
2018-03-14T17:07:15.828Z,15.47
2018-03-14T17:09:44.184Z,15.13
2018-03-14T17:12:13.338Z,17.27
2018-03-14T17:14:41.661Z,14.87
2018-03-14T17:17:16.333Z,16.90
2018-03-14T17:19:44.764Z,18.70
2018-03-14T17:22:13.914Z,17.43
2018-03-14T17:24:42.271Z,19.33
2018-03-14T17:27:10.618Z,23.47
2018-03-14T17:29:39.003Z,21.53
2018-03-14T17:32:07.959Z,18.37
2018-03-14T17:34:36.337Z,21.70
2018-03-14T17:37:04.696Z,24.63
2018-03-14T17:39:33.052Z,22.67
2018-03-14T17:42:01.452Z,22.20
2018-03-14T17:44:29.811Z,21.50
2018-03-14T17:46:58.143Z,23.50
2018-03-14T17:49:27.392Z,18.77
2018-03-14T17:51:55.740Z,24.10
2018-03-14T17:54:24.109Z,22.73
2018-03-14T17:56:52.761Z,23.57
2018-03-14T17:59:21.937Z,25.50
2018-03-14T18:01:50.367Z,22.17
2018-03-14T18:04:18.827Z,23.43
2018-03-14T18:06:47.468Z,22.93
2018-03-14T18:09:16.409Z,23.30
2018-03-14T18:11:45.145Z,25.37
2018-03-14T18:14:13.700Z,26.03
2018-03-14T18:16:42.122Z,24.43
2018-03-14T18:19:10.446Z,25.53
2018-03-14T18:21:38.908Z,28.13
2018-03-14T18:24:09.598Z,29.67
2018-03-14T18:26:38.306Z,26.37
2018-03-14T18:29:06.977Z,26.80
2018-03-14T18:31:35.384Z,28.93
2018-03-14T18:34:03.726Z,32.37
2018-03-14T18:36:32.170Z,24.57
2018-03-14T18:39:01.895Z,25.33
2018-03-14T18:41:30.274Z,28.53
2018-03-14T18:43:58.772Z,28.07
2018-03-14T18:46:27.150Z,24.87
2018-03-14T18:48:55.856Z,25.70
2018-03-14T18:51:24.577Z,27.50
2018-03-14T18:53:53.274Z,29.53
2018-03-14T18:56:22.003Z,24.87
2018-03-14T18:58:50.395Z,28.73
2018-03-14T19:01:20.666Z,26.57
2018-03-14T19:03:49.069Z,26.87
2018-03-14T19:06:18.184Z,24.37
2018-03-14T19:08:46.601Z,24.07
2018-03-14T19:11:16.548Z,30.93
2018-03-14T19:13:44.906Z,23.00
2018-03-14T19:16:13.504Z,27.20
2018-03-14T19:18:41.908Z,25.73
2018-03-14T19:21:10.281Z,26.07
2018-03-14T19:23:38.622Z,23.53
2018-03-14T19:26:07.027Z,24.50
2018-03-14T19:28:35.362Z,25.93
2018-03-14T19:31:04.500Z,21.47
2018-03-14T19:33:32.862Z,23.17
2018-03-14T19:36:01.212Z,24.50
2018-03-14T19:38:30.337Z,21.97
2018-03-14T19:40:58.674Z,19.60
2018-03-14T19:43:27.811Z,26.13
2018-03-14T19:45:56.559Z,19.97
2018-03-14T19:48:24.943Z,19.17
2018-03-14T19:50:53.273Z,20.40
2018-03-14T19:53:21.637Z,19.80
2018-03-14T19:55:53.556Z,22.60
2018-03-14T19:58:22.057Z,18.73
2018-03-14T20:00:50.593Z,18.20
2018-03-14T20:03:21.466Z,15.77
2018-03-14T20:05:50.569Z,17.53
2018-03-14T20:08:18.928Z,14.50
2018-03-14T20:10:48.107Z,18.30
2018-03-14T20:13:16.484Z,17.67
2018-03-14T20:15:44.894Z,18.47
2018-03-14T20:18:14.002Z,15.93
2018-03-14T20:20:42.342Z,16.00
2018-03-14T20:23:10.737Z,16.47
2018-03-14T20:25:39.860Z,18.40
2018-03-14T20:28:08.192Z,22.23
2018-03-14T20:30:36.536Z,18.63
2018-03-14T20:33:04.941Z,21.43
2018-03-14T20:35:33.299Z,21.10
2018-03-14T20:38:01.633Z,17.37
2018-03-14T20:40:30.786Z,23.20
2018-03-14T20:42:59.143Z,28.90
2018-03-14T20:45:27.485Z,25.10
2018-03-14T20:47:55.864Z,23.33
2018-03-14T20:50:24.221Z,26.20
2018-03-14T20:52:53.331Z,25.60
2018-03-14T20:55:21.690Z,25.60
2018-03-14T20:57:50.851Z,28.03
2018-03-14T21:00:19.187Z,28.30
2018-03-14T21:02:47.555Z,26.67
2018-03-14T21:05:15.912Z,26.77
2018-03-14T21:07:45.009Z,31.53
2018-03-14T21:10:14.194Z,28.83
2018-03-14T21:12:42.520Z,29.03
2018-03-14T21:15:10.848Z,33.20
2018-03-14T21:17:39.244Z,28.43
2018-03-14T21:20:08.337Z,27.70
2018-03-14T21:22:36.675Z,29.63
2018-03-14T21:25:05.048Z,26.67
2018-03-14T21:27:33.386Z,31.23
2018-03-14T21:30:01.705Z,36.97
2018-03-14T21:32:30.066Z,31.40
2018-03-14T21:34:58.411Z,34.93
2018-03-14T21:37:27.706Z,30.60
2018-03-14T21:39:56.065Z,28.97
2018-03-14T21:42:24.388Z,27.30
2018-03-14T21:44:53.080Z,29.70
2018-03-14T21:47:21.428Z,29.53
2018-03-14T21:49:49.820Z,29.23
2018-03-14T21:52:19.341Z,29.70
2018-03-14T21:54:47.679Z,26.60
2018-03-14T21:57:18.836Z,27.47
2018-03-14T21:59:47.216Z,29.60
2018-03-14T22:02:16.069Z,27.40
2018-03-14T22:04:44.454Z,29.70
2018-03-14T22:07:17.386Z,28.80
2018-03-14T22:09:45.843Z,31.13
2018-03-14T22:12:14.153Z,26.80
2018-03-14T22:14:42.868Z,30.00
2018-03-14T22:17:11.275Z,26.63
2018-03-14T22:19:40.370Z,24.80
2018-03-14T22:22:11.589Z,27.83
2018-03-14T22:24:39.964Z,24.80
2018-03-14T22:27:08.996Z,26.40
2018-03-14T22:29:37.689Z,26.90
2018-03-14T22:32:06.180Z,24.93
2018-03-14T22:34:34.501Z,27.67
2018-03-14T22:37:02.941Z,26.20
2018-03-14T22:39:32.005Z,22.67
2018-03-14T22:42:01.159Z,24.07
2018-03-14T22:44:29.514Z,23.70
2018-03-14T22:46:57.899Z,22.73
2018-03-14T22:49:26.262Z,19.70
2018-03-14T22:51:54.608Z,20.77
2018-03-14T22:54:23.121Z,22.53
2018-03-14T22:56:51.547Z,17.70
2018-03-14T22:59:19.953Z,20.20
2018-03-14T23:01:48.375Z,19.47
2018-03-14T23:04:16.752Z,22.27
2018-03-14T23:06:45.175Z,16.33
2018-03-14T23:09:13.747Z,19.80
2018-03-14T23:11:42.149Z,20.80
2018-03-14T23:14:10.515Z,21.97
2018-03-14T23:16:38.852Z,16.57
2018-03-14T23:19:07.271Z,23.70
2018-03-14T23:21:35.669Z,19.57
2018-03-14T23:24:04.069Z,17.23
2018-03-14T23:26:32.461Z,17.33
2018-03-14T23:29:00.802Z,19.97
2018-03-14T23:31:29.196Z,19.90
2018-03-14T23:33:57.580Z,17.77
2018-03-14T23:36:25.938Z,16.87
2018-03-14T23:38:54.260Z,20.53
2018-03-14T23:41:22.623Z,20.10
2018-03-14T23:43:50.967Z,16.83
2018-03-14T23:46:19.372Z,18.77
2018-03-14T23:48:47.724Z,20.13
2018-03-14T23:51:16.260Z,21.00
2018-03-14T23:53:44.636Z,17.90
2018-03-14T23:56:12.997Z,17.93
2018-03-14T23:58:41.396Z,17.73
